Time;durP1;ratioP1;P1;durP2;ratioP2;P2;SDS_P1;SDS_P2;PMS_P1;PMS_P2;Temp;Humidity;BMP_temperature;BMP_pressure;BME280_temperature;BME280_humidity;BME280_pressure;Samples;Min_cycle;Max_cycle;Signal;HPM_P1;HPM_P2
2021/07/18 00:01:25;;;;;;;15.98;8.82;;;;;;;;;;5072331;28;20094;-67
2021/07/18 00:03:51;;;;;;;21.02;8.52;;;;;;;;;;5072433;28;20119;-66
2021/07/18 00:06:17;;;;;;;15.65;9.35;;;;;;;;;;5072203;28;20472;-66
2021/07/18 00:08:43;;;;;;;13.40;9.32;;;;;;;;;;5072289;28;20110;-67
2021/07/18 00:11:09;;;;;;;13.20;8.77;;;;;;;;;;5072114;28;20504;-65
2021/07/18 00:13:35;;;;;;;15.02;9.20;;;;;;;;;;5072035;28;20047;-66
2021/07/18 00:16:01;;;;;;;14.90;8.55;;;;;;;;;;5071908;28;20515;-66
2021/07/18 00:18:27;;;;;;;17.08;9.10;;;;;;;;;;5072187;28;20029;-65
2021/07/18 00:20:54;;;;;;;17.35;9.80;;;;;;;;;;5072047;28;20024;-66
2021/07/18 00:23:20;;;;;;;13.90;9.65;;;;;;;;;;5072008;28;20056;-65
2021/07/18 00:25:46;;;;;;;18.85;9.20;;;;;;;;;;5071832;28;20665;-66
2021/07/18 00:28:12;;;;;;;17.50;9.82;;;;;;;;;;5071885;28;20138;-66
2021/07/18 00:30:38;;;;;;;11.85;9.20;;;;;;;;;;5054114;28;20021;-65
2021/07/18 00:33:06;;;;;;;17.13;9.68;;;;;;;;;;5072034;28;20020;-66
2021/07/18 00:35:32;;;;;;;14.70;9.90;;;;;;;;;;5071887;28;20012;-66
2021/07/18 00:37:58;;;;;;;16.20;8.68;;;;;;;;;;5071752;28;20025;-65
2021/07/18 00:40:24;;;;;;;18.30;9.77;;;;;;;;;;5071980;28;20012;-67
2021/07/18 00:42:50;;;;;;;16.40;8.63;;;;;;;;;;5071762;28;20104;-68
2021/07/18 00:45:16;;;;;;;13.85;9.25;;;;;;;;;;5071927;28;20070;-68
2021/07/18 00:47:42;;;;;;;16.70;9.23;;;;;;;;;;5071786;28;20157;-67
2021/07/18 00:50:10;;;;;;;14.93;9.52;;;;;;;;;;5053464;28;20056;-68
2021/07/18 00:52:36;;;;;;;15.18;9.70;;;;;;;;;;5071501;28;20499;-68
2021/07/18 00:55:03;;;;;;;17.63;9.73;;;;;;;;;;5053855;28;20031;-66
2021/07/18 00:57:29;;;;;;;20.23;10.48;;;;;;;;;;5071695;28;20032;-66
2021/07/18 00:59:55;;;;;;;20.65;10.02;;;;;;;;;;5071921;28;20021;-66
2021/07/18 01:02:21;;;;;;;14.40;10.00;;;;;;;;;;5054061;28;20035;-67
2021/07/18 01:04:48;;;;;;;15.13;10.02;;;;;;;;;;5075511;28;20485;-66
2021/07/18 01:07:14;;;;;;;15.90;11.35;;;;;;;;;;5057654;28;20144;-66
2021/07/18 01:09:40;;;;;;;16.05;10.40;;;;;;;;;;5094428;28;20031;-65
2021/07/18 01:12:06;;;;;;;18.35;10.55;;;;;;;;;;5095792;28;20210;-65
2021/07/18 01:14:32;;;;;;;16.67;9.88;;;;;;;;;;5095698;28;20040;-65
2021/07/18 01:16:59;;;;;;;19.15;10.73;;;;;;;;;;5095675;28;20049;-65
2021/07/18 01:19:25;;;;;;;16.70;10.10;;;;;;;;;;5095676;28;20091;-66
2021/07/18 01:21:59;;;;;;;14.73;10.15;;;;;;;;;;5095642;28;20019;-66
2021/07/18 01:24:25;;;;;;;19.83;10.35;;;;;;;;;;5095715;28;20073;-66
2021/07/18 01:26:52;;;;;;;18.73;10.50;;;;;;;;;;5095455;28;20507;-66
2021/07/18 01:29:19;;;;;;;14.85;10.88;;;;;;;;;;5095439;28;20074;-66
2021/07/18 01:31:45;;;;;;;20.83;11.63;;;;;;;;;;5095246;28;20024;-66
2021/07/18 01:34:11;;;;;;;19.65;10.15;;;;;;;;;;5095364;28;20103;-65
2021/07/18 01:36:37;;;;;;;19.33;10.85;;;;;;;;;;5095480;28;20016;-65
2021/07/18 01:39:07;;;;;;;17.05;10.20;;;;;;;;;;5095377;28;20024;-68
2021/07/18 01:41:33;;;;;;;17.75;10.43;;;;;;;;;;5095389;28;20031;-66
2021/07/18 01:43:59;;;;;;;19.23;10.55;;;;;;;;;;5095262;28;20073;-66
2021/07/18 01:46:26;;;;;;;19.20;10.65;;;;;;;;;;5094944;28;20382;-66
2021/07/18 01:48:52;;;;;;;17.63;11.02;;;;;;;;;;5095126;28;20099;-65
2021/07/18 01:51:22;;;;;;;20.80;11.20;;;;;;;;;;5095219;28;20051;-65
2021/07/18 01:53:51;;;;;;;15.43;10.00;;;;;;;;;;5076849;28;20016;-65
2021/07/18 01:56:18;;;;;;;16.20;9.30;;;;;;;;;;5095007;28;20020;-66
2021/07/18 01:58:46;;;;;;;16.38;9.43;;;;;;;;;;5094907;28;20076;-66
2021/07/18 02:01:12;;;;;;;15.45;10.93;;;;;;;;;;5094792;28;20056;-67
2021/07/18 02:03:38;;;;;;;16.88;11.05;;;;;;;;;;5076770;28;20024;-68
2021/07/18 02:06:05;;;;;;;20.83;11.60;;;;;;;;;;5094714;28;20062;-67
2021/07/18 02:08:31;;;;;;;18.33;10.65;;;;;;;;;;5094664;28;20024;-67
2021/07/18 02:10:57;;;;;;;17.17;10.70;;;;;;;;;;5076408;28;20024;-66
2021/07/18 02:13:23;;;;;;;17.88;11.32;;;;;;;;;;5094133;28;20086;-67
2021/07/18 02:15:49;;;;;;;18.15;10.55;;;;;;;;;;5076641;28;20085;-67
2021/07/18 02:18:16;;;;;;;18.35;11.20;;;;;;;;;;5094865;28;20148;-67
2021/07/18 02:20:42;;;;;;;13.10;10.43;;;;;;;;;;5094590;28;20020;-68
2021/07/18 02:23:09;;;;;;;13.93;10.55;;;;;;;;;;5094258;28;20031;-67
2021/07/18 02:25:35;;;;;;;19.92;10.82;;;;;;;;;;5076040;28;20073;-66
2021/07/18 02:28:01;;;;;;;15.05;9.88;;;;;;;;;;5094142;28;20063;-66
2021/07/18 02:30:28;;;;;;;13.63;10.27;;;;;;;;;;5094180;28;20020;-65
2021/07/18 02:32:54;;;;;;;15.25;10.85;;;;;;;;;;5094236;28;20069;-65
2021/07/18 02:35:20;;;;;;;14.15;10.35;;;;;;;;;;5094100;28;20016;-66
2021/07/18 02:37:47;;;;;;;14.82;9.40;;;;;;;;;;5075892;28;20115;-66
2021/07/18 02:40:14;;;;;;;14.57;10.45;;;;;;;;;;5093968;28;20149;-65
2021/07/18 02:42:40;;;;;;;17.67;10.95;;;;;;;;;;5093952;28;20020;-65
2021/07/18 02:45:10;;;;;;;14.63;10.02;;;;;;;;;;5094040;28;20024;-66
2021/07/18 02:47:36;;;;;;;15.60;11.23;;;;;;;;;;5076117;28;20037;-66
2021/07/18 02:50:12;;;;;;;15.38;10.10;;;;;;;;;;5094072;28;20707;-65
2021/07/18 02:52:38;;;;;;;14.52;10.75;;;;;;;;;;5075629;28;20031;-66
2021/07/18 02:55:05;;;;;;;20.17;11.80;;;;;;;;;;5093719;28;20425;-67
2021/07/18 02:57:31;;;;;;;20.75;11.27;;;;;;;;;;5093981;28;20024;-65
2021/07/18 02:59:58;;;;;;;17.17;11.35;;;;;;;;;;5094086;28;20048;-65
2021/07/18 03:02:24;;;;;;;18.70;11.57;;;;;;;;;;5075529;28;20027;-66
2021/07/18 03:04:50;;;;;;;19.02;11.65;;;;;;;;;;5093495;28;20016;-67
2021/07/18 03:07:16;;;;;;;16.58;10.50;;;;;;;;;;5093535;28;20028;-65
2021/07/18 03:09:42;;;;;;;16.33;10.93;;;;;;;;;;5093566;28;20016;-65
2021/07/18 03:12:09;;;;;;;21.48;11.77;;;;;;;;;;5075392;28;20053;-66
2021/07/18 03:14:35;;;;;;;15.35;10.57;;;;;;;;;;5093491;28;20130;-66
2021/07/18 03:17:01;;;;;;;17.95;10.82;;;;;;;;;;5093614;28;20028;-65
2021/07/18 03:19:27;;;;;;;20.63;10.95;;;;;;;;;;5093403;28;20110;-65
2021/07/18 03:21:53;;;;;;;18.13;10.95;;;;;;;;;;5093326;28;20023;-68
2021/07/18 03:24:19;;;;;;;17.30;11.02;;;;;;;;;;5093434;28;20024;-65
2021/07/18 03:26:45;;;;;;;19.60;11.60;;;;;;;;;;5092707;28;20039;-66
2021/07/18 03:29:11;;;;;;;21.33;10.98;;;;;;;;;;5093434;28;20027;-66
2021/07/18 03:31:37;;;;;;;16.52;10.35;;;;;;;;;;5092957;28;20173;-68
2021/07/18 03:34:03;;;;;;;16.25;11.18;;;;;;;;;;5093035;28;20012;-66
2021/07/18 03:36:30;;;;;;;15.93;11.02;;;;;;;;;;5093059;28;20077;-66
2021/07/18 03:38:56;;;;;;;17.92;11.68;;;;;;;;;;5093030;28;20044;-66
2021/07/18 03:41:22;;;;;;;20.30;10.98;;;;;;;;;;5092839;28;20027;-65
2021/07/18 03:43:48;;;;;;;18.85;10.43;;;;;;;;;;5093086;28;20065;-66
2021/07/18 03:46:14;;;;;;;15.40;10.82;;;;;;;;;;5092865;28;20028;-66
2021/07/18 03:48:41;;;;;;;15.85;11.23;;;;;;;;;;5093005;28;20020;-65
2021/07/18 03:51:07;;;;;;;17.08;11.20;;;;;;;;;;5092557;28;20055;-66
2021/07/18 03:53:33;;;;;;;20.67;11.07;;;;;;;;;;5092590;28;20667;-66
2021/07/18 03:55:59;;;;;;;15.80;11.20;;;;;;;;;;5092740;28;20032;-67
2021/07/18 03:58:25;;;;;;;15.57;11.30;;;;;;;;;;5092700;28;20024;-68
2021/07/18 04:00:51;;;;;;;16.77;10.65;;;;;;;;;;5092604;28;20024;-68
2021/07/18 04:03:17;;;;;;;15.73;10.57;;;;;;;;;;5092565;28;20020;-68
2021/07/18 04:05:43;;;;;;;19.48;10.55;;;;;;;;;;5074270;28;20119;-67
2021/07/18 04:08:10;;;;;;;15.73;10.30;;;;;;;;;;5092722;28;20055;-66
2021/07/18 04:10:36;;;;;;;15.90;11.60;;;;;;;;;;5092394;28;20019;-68
2021/07/18 04:13:02;;;;;;;17.13;11.07;;;;;;;;;;5092279;28;20109;-67
2021/07/18 04:15:28;;;;;;;17.02;10.20;;;;;;;;;;5092510;28;20141;-66
2021/07/18 04:17:54;;;;;;;18.42;10.63;;;;;;;;;;5092275;28;20095;-66
2021/07/18 04:20:20;;;;;;;19.10;10.27;;;;;;;;;;5074145;28;20028;-66
2021/07/18 04:22:46;;;;;;;20.20;10.52;;;;;;;;;;5092092;28;20054;-66
2021/07/18 04:25:12;;;;;;;17.48;9.68;;;;;;;;;;5074114;28;20500;-66
2021/07/18 04:27:38;;;;;;;12.70;9.65;;;;;;;;;;5074096;28;20032;-66
2021/07/18 04:30:06;;;;;;;19.58;11.07;;;;;;;;;;5092135;28;20027;-66
2021/07/18 04:32:32;;;;;;;17.27;10.77;;;;;;;;;;5092170;28;20020;-66
2021/07/18 04:34:58;;;;;;;16.95;11.13;;;;;;;;;;5092027;28;20016;-66
2021/07/18 04:37:24;;;;;;;18.25;11.77;;;;;;;;;;5091858;28;20073;-67
2021/07/18 04:39:50;;;;;;;14.65;10.93;;;;;;;;;;5092061;28;20031;-66
2021/07/18 04:42:16;;;;;;;15.73;10.23;;;;;;;;;;5092161;28;20028;-68
2021/07/18 04:44:42;;;;;;;14.85;11.30;;;;;;;;;;5092011;28;20082;-68
2021/07/18 04:47:08;;;;;;;16.52;10.73;;;;;;;;;;5092047;28;20028;-68
2021/07/18 04:49:34;;;;;;;18.10;11.10;;;;;;;;;;5092278;28;20016;-68
2021/07/18 04:52:00;;;;;;;17.63;11.18;;;;;;;;;;5073865;28;20031;-68
2021/07/18 04:54:26;;;;;;;14.75;10.23;;;;;;;;;;5074084;28;20066;-68
2021/07/18 04:56:52;;;;;;;16.70;11.07;;;;;;;;;;5092100;28;20028;-66
2021/07/18 04:59:19;;;;;;;14.45;10.38;;;;;;;;;;5091729;28;20051;-66
2021/07/18 05:01:45;;;;;;;14.63;10.63;;;;;;;;;;5091608;28;20153;-66
2021/07/18 05:04:11;;;;;;;14.40;10.57;;;;;;;;;;5092033;28;20436;-67
2021/07/18 05:06:37;;;;;;;15.63;10.73;;;;;;;;;;5092034;28;20405;-66
2021/07/18 05:09:04;;;;;;;17.42;10.73;;;;;;;;;;5092013;28;20033;-66
2021/07/18 05:11:30;;;;;;;13.93;10.88;;;;;;;;;;5092119;28;20031;-66
2021/07/18 05:13:56;;;;;;;19.95;10.93;;;;;;;;;;5091652;28;20048;-66
2021/07/18 05:16:22;;;;;;;17.25;10.57;;;;;;;;;;5091576;28;20012;-67
2021/07/18 05:18:48;;;;;;;15.63;10.60;;;;;;;;;;5073349;28;20063;-68
2021/07/18 05:21:14;;;;;;;17.15;11.00;;;;;;;;;;5091654;28;20465;-68
2021/07/18 05:23:40;;;;;;;16.88;11.73;;;;;;;;;;5091700;28;20078;-67
2021/07/18 05:26:06;;;;;;;20.55;9.98;;;;;;;;;;5091642;28;20032;-68
2021/07/18 05:28:32;;;;;;;18.05;11.15;;;;;;;;;;5073320;28;20020;-66
2021/07/18 05:30:59;;;;;;;24.65;10.98;;;;;;;;;;5091446;28;20043;-65
2021/07/18 05:33:25;;;;;;;20.92;11.25;;;;;;;;;;5091558;28;20024;-67
2021/07/18 05:35:52;;;;;;;15.65;11.23;;;;;;;;;;5091592;28;20027;-66
2021/07/18 05:38:18;;;;;;;19.00;11.50;;;;;;;;;;5091432;28;20017;-68
2021/07/18 05:40:44;;;;;;;15.98;11.13;;;;;;;;;;5091712;28;20020;-67
2021/07/18 05:43:10;;;;;;;23.55;11.93;;;;;;;;;;5091629;28;20175;-67
2021/07/18 05:45:36;;;;;;;18.13;11.98;;;;;;;;;;5091429;28;20032;-68
2021/07/18 05:48:03;;;;;;;15.75;11.52;;;;;;;;;;5091652;28;20400;-67
2021/07/18 05:50:29;;;;;;;17.65;12.02;;;;;;;;;;5094975;28;20027;-67
2021/07/18 05:52:55;;;;;;;14.65;11.90;;;;;;;;;;5076901;28;20112;-67
2021/07/18 05:55:23;;;;;;;19.40;12.15;;;;;;;;;;5095083;28;20016;-69
2021/07/18 05:57:49;;;;;;;18.83;12.00;;;;;;;;;;5095125;28;20028;-66
2021/07/18 06:00:15;;;;;;;16.17;11.35;;;;;;;;;;5094867;28;20441;-66
2021/07/18 06:02:42;;;;;;;17.98;11.60;;;;;;;;;;5094620;28;20091;-66
2021/07/18 06:05:09;;;;;;;24.20;13.23;;;;;;;;;;5094893;28;20024;-66
2021/07/18 06:07:35;;;;;;;17.95;12.20;;;;;;;;;;5094785;28;20089;-66
2021/07/18 06:10:02;;;;;;;21.73;11.98;;;;;;;;;;5094845;28;20533;-65
2021/07/18 06:12:28;;;;;;;21.17;12.93;;;;;;;;;;5094801;28;20027;-66
2021/07/18 06:14:54;;;;;;;19.85;13.00;;;;;;;;;;5094542;28;20089;-66
2021/07/18 06:17:20;;;;;;;17.38;11.90;;;;;;;;;;5094689;28;20032;-65
2021/07/18 06:19:46;;;;;;;17.38;12.55;;;;;;;;;;5076456;28;20232;-66
2021/07/18 06:22:12;;;;;;;18.80;11.77;;;;;;;;;;5094574;28;20020;-66
2021/07/18 06:24:38;;;;;;;17.63;12.68;;;;;;;;;;5094617;28;20032;-67
2021/07/18 06:27:05;;;;;;;15.57;11.80;;;;;;;;;;5094299;28;20138;-67
2021/07/18 06:29:31;;;;;;;24.98;11.90;;;;;;;;;;5094385;28;20012;-69
2021/07/18 06:31:57;;;;;;;15.57;11.82;;;;;;;;;;5094257;28;20534;-69
2021/07/18 06:34:23;;;;;;;14.88;10.85;;;;;;;;;;5094436;28;20047;-69
2021/07/18 06:36:49;;;;;;;19.38;11.90;;;;;;;;;;5094294;28;20042;-68
2021/07/18 06:39:16;;;;;;;16.55;11.35;;;;;;;;;;5075964;28;20430;-68
2021/07/18 06:41:42;;;;;;;14.85;10.10;;;;;;;;;;5093805;28;20028;-68
2021/07/18 06:44:08;;;;;;;15.57;11.20;;;;;;;;;;5094135;28;20012;-67
2021/07/18 06:46:34;;;;;;;15.77;11.77;;;;;;;;;;5094012;28;20039;-67
2021/07/18 06:49:00;;;;;;;14.45;10.75;;;;;;;;;;5094226;28;20021;-69
2021/07/18 06:51:26;;;;;;;14.82;10.68;;;;;;;;;;5094018;28;20427;-67
2021/07/18 06:53:52;;;;;;;14.60;10.70;;;;;;;;;;5075901;28;20031;-67
2021/07/18 06:56:18;;;;;;;17.25;10.93;;;;;;;;;;5094041;28;20035;-66
2021/07/18 06:58:44;;;;;;;18.17;11.18;;;;;;;;;;5093904;28;20162;-70
2021/07/18 07:01:10;;;;;;;15.65;11.30;;;;;;;;;;5093650;28;20020;-67
2021/07/18 07:03:37;;;;;;;16.85;11.23;;;;;;;;;;5093822;28;20028;-67
2021/07/18 07:06:03;;;;;;;15.20;11.63;;;;;;;;;;5093493;28;20480;-67
2021/07/18 07:08:32;;;;;;;15.70;10.63;;;;;;;;;;5093490;28;20039;-66
2021/07/18 07:10:58;;;;;;;17.00;10.68;;;;;;;;;;5093606;28;20099;-67
2021/07/18 07:13:24;;;;;;;17.70;11.38;;;;;;;;;;5093239;28;20047;-68
2021/07/18 07:15:50;;;;;;;16.30;10.48;;;;;;;;;;5093459;28;20024;-67
2021/07/18 07:18:16;;;;;;;18.30;11.38;;;;;;;;;;5093349;28;20031;-67
2021/07/18 07:20:42;;;;;;;14.55;10.23;;;;;;;;;;5093325;28;20074;-67
2021/07/18 07:23:08;;;;;;;16.50;10.45;;;;;;;;;;5093355;28;20035;-67
2021/07/18 07:25:34;;;;;;;14.60;10.38;;;;;;;;;;5093358;28;20016;-67
2021/07/18 07:28:00;;;;;;;15.82;11.05;;;;;;;;;;5092968;28;20089;-70
2021/07/18 07:30:26;;;;;;;14.38;10.63;;;;;;;;;;5074982;28;20225;-69
2021/07/18 07:32:52;;;;;;;13.57;10.50;;;;;;;;;;5093258;28;20052;-69
2021/07/18 07:35:18;;;;;;;16.05;11.30;;;;;;;;;;5093198;28;20016;-69
2021/07/18 07:37:45;;;;;;;14.15;11.13;;;;;;;;;;5093073;28;20102;-69
2021/07/18 07:40:13;;;;;;;14.80;10.73;;;;;;;;;;5074726;28;20028;-69
2021/07/18 07:42:39;;;;;;;15.43;10.52;;;;;;;;;;5092907;28;20020;-67
2021/07/18 07:45:05;;;;;;;15.43;11.77;;;;;;;;;;5092986;28;20103;-67
2021/07/18 07:47:31;;;;;;;17.10;11.40;;;;;;;;;;5092757;28;20028;-67
2021/07/18 07:49:57;;;;;;;13.30;10.27;;;;;;;;;;5074385;28;20028;-67
2021/07/18 07:52:23;;;;;;;17.45;11.07;;;;;;;;;;5092717;28;20021;-67
2021/07/18 07:54:49;;;;;;;14.13;10.98;;;;;;;;;;5092681;28;20123;-67
2021/07/18 07:57:15;;;;;;;15.55;11.00;;;;;;;;;;5092606;28;20020;-67
2021/07/18 07:59:42;;;;;;;16.77;11.68;;;;;;;;;;5092905;28;20100;-67
2021/07/18 08:02:08;;;;;;;16.63;11.32;;;;;;;;;;5092689;28;20039;-67
2021/07/18 08:04:34;;;;;;;12.88;10.00;;;;;;;;;;5092642;28;20138;-67
2021/07/18 08:07:00;;;;;;;17.00;11.65;;;;;;;;;;5092530;28;20036;-68
2021/07/18 08:09:26;;;;;;;19.95;12.05;;;;;;;;;;5092379;28;20058;-66
2021/07/18 08:11:52;;;;;;;16.50;12.30;;;;;;;;;;5073633;28;20468;-67
2021/07/18 08:14:18;;;;;;;16.92;12.63;;;;;;;;;;5092354;28;20047;-70
2021/07/18 08:16:44;;;;;;;19.13;12.40;;;;;;;;;;5092686;28;20027;-69
2021/07/18 08:19:11;;;;;;;20.00;13.70;;;;;;;;;;5092425;28;20024;-69
2021/07/18 08:21:37;;;;;;;18.67;12.98;;;;;;;;;;5092429;28;20453;-68
2021/07/18 08:24:04;;;;;;;17.67;12.98;;;;;;;;;;5092245;28;20020;-69
2021/07/18 08:26:30;;;;;;;18.67;11.93;;;;;;;;;;5092119;28;20030;-70
2021/07/18 08:28:56;;;;;;;16.40;12.23;;;;;;;;;;5092207;28;20032;-68
2021/07/18 08:31:22;;;;;;;18.88;12.90;;;;;;;;;;5074171;28;20024;-69
2021/07/18 08:33:48;;;;;;;18.35;13.00;;;;;;;;;;5074192;28;20059;-70
2021/07/18 08:36:14;;;;;;;16.77;13.07;;;;;;;;;;5092311;28;20485;-69
2021/07/18 08:38:40;;;;;;;17.60;12.88;;;;;;;;;;5092276;28;20066;-70
2021/07/18 08:41:06;;;;;;;21.05;13.80;;;;;;;;;;5091977;28;20389;-69
2021/07/18 08:43:32;;;;;;;19.15;12.45;;;;;;;;;;5092004;28;20071;-67
2021/07/18 08:45:58;;;;;;;16.85;12.82;;;;;;;;;;5092015;28;20091;-66
2021/07/18 08:48:24;;;;;;;17.88;12.77;;;;;;;;;;5092191;28;20730;-70
2021/07/18 08:50:52;;;;;;;19.10;11.05;;;;;;;;;;5091813;28;20073;-67
2021/07/18 08:53:18;;;;;;;18.92;10.63;;;;;;;;;;5091690;28;20028;-68
2021/07/18 08:55:44;;;;;;;14.32;9.30;;;;;;;;;;5092187;28;20017;-67
2021/07/18 08:58:15;;;;;;;14.35;9.57;;;;;;;;;;5073949;28;20043;-66
2021/07/18 09:00:41;;;;;;;15.07;8.65;;;;;;;;;;5091967;28;20468;-67
2021/07/18 09:03:07;;;;;;;12.20;7.32;;;;;;;;;;5091771;28;20020;-67
2021/07/18 09:05:33;;;;;;;9.98;6.85;;;;;;;;;;5091798;28;20586;-66
2021/07/18 09:07:59;;;;;;;11.05;6.55;;;;;;;;;;5091671;28;20481;-67
2021/07/18 09:10:29;;;;;;;14.18;6.95;;;;;;;;;;5091934;28;20645;-67
2021/07/18 09:13:21;;;;;;;14.07;7.55;;;;;;;;;;5091937;28;20043;-67
2021/07/18 09:15:51;;;;;;;13.55;6.95;;;;;;;;;;5088230;28;20040;-66
2021/07/18 09:18:19;;;;;;;16.75;7.55;;;;;;;;;;5091770;28;20112;-67
2021/07/18 09:20:55;;;;;;;10.43;7.10;;;;;;;;;;5091799;28;20020;-68
2021/07/18 09:23:24;;;;;;;12.40;7.75;;;;;;;;;;5092164;28;20028;-67
2021/07/18 09:25:50;;;;;;;10.57;7.05;;;;;;;;;;5095685;28;20096;-67
2021/07/18 09:28:20;;;;;;;11.57;6.88;;;;;;;;;;5095548;28;20031;-66
2021/07/18 09:30:47;;;;;;;10.93;6.90;;;;;;;;;;5095287;28;20016;-67
2021/07/18 09:33:22;;;;;;;10.48;7.70;;;;;;;;;;5095360;28;20024;-66
2021/07/18 09:35:48;;;;;;;15.52;7.10;;;;;;;;;;5095536;28;20016;-67
2021/07/18 09:38:22;;;;;;;13.77;6.85;;;;;;;;;;5095674;28;20073;-67
2021/07/18 09:40:58;;;;;;;14.40;7.63;;;;;;;;;;5095467;28;20034;-66
2021/07/18 09:43:26;;;;;;;13.13;6.85;;;;;;;;;;5095339;28;20600;-67
2021/07/18 09:46:00;;;;;;;16.55;8.02;;;;;;;;;;5094935;28;20422;-67
2021/07/18 09:48:40;;;;;;;12.00;7.15;;;;;;;;;;5077050;28;20060;-67
2021/07/18 09:51:10;;;;;;;11.80;6.75;;;;;;;;;;5077198;28;20111;-68
2021/07/18 09:53:37;;;;;;;12.85;8.05;;;;;;;;;;5095117;28;20073;-68
2021/07/18 09:56:32;;;;;;;13.40;6.78;;;;;;;;;;5094675;28;20055;-67
2021/07/18 09:58:58;;;;;;;11.68;7.03;;;;;;;;;;5077572;28;20043;-66
2021/07/18 10:01:24;;;;;;;10.77;6.43;;;;;;;;;;5094882;28;20114;-67
2021/07/18 10:03:55;;;;;;;13.18;6.72;;;;;;;;;;5094869;28;20275;-67
2021/07/18 10:06:23;;;;;;;9.73;7.20;;;;;;;;;;5094789;28;20024;-68
2021/07/18 10:08:51;;;;;;;10.35;6.60;;;;;;;;;;5094905;28;20275;-67
2021/07/18 10:11:18;;;;;;;14.40;7.13;;;;;;;;;;5094624;28;20013;-68
2021/07/18 10:13:45;;;;;;;10.45;6.22;;;;;;;;;;5094473;28;20102;-69
2021/07/18 10:16:12;;;;;;;11.57;7.07;;;;;;;;;;5094706;28;20024;-67
2021/07/18 10:18:40;;;;;;;11.98;6.70;;;;;;;;;;5094494;28;20098;-67
2021/07/18 10:21:07;;;;;;;12.07;6.95;;;;;;;;;;5094261;28;20028;-67
2021/07/18 10:23:36;;;;;;;10.48;7.13;;;;;;;;;;5094578;28;20217;-66
2021/07/18 10:26:03;;;;;;;11.30;6.82;;;;;;;;;;5094602;28;20020;-67
2021/07/18 10:28:29;;;;;;;10.88;7.32;;;;;;;;;;5094595;28;20040;-67
2021/07/18 10:30:56;;;;;;;10.10;7.05;;;;;;;;;;5094290;28;20031;-66
2021/07/18 10:33:23;;;;;;;14.38;7.60;;;;;;;;;;5094248;28;20271;-67
2021/07/18 10:35:51;;;;;;;11.85;7.75;;;;;;;;;;5093740;28;20053;-67
2021/07/18 10:38:21;;;;;;;11.23;7.43;;;;;;;;;;5076445;28;20088;-67
2021/07/18 10:40:47;;;;;;;11.45;7.20;;;;;;;;;;5094269;28;20020;-67
2021/07/18 10:43:32;;;;;;;14.05;7.60;;;;;;;;;;5094190;28;20020;-66
2021/07/18 10:45:58;;;;;;;13.05;8.30;;;;;;;;;;5093951;28;20020;-67
2021/07/18 10:48:39;;;;;;;10.65;7.25;;;;;;;;;;5094036;28;20071;-67
2021/07/18 10:51:06;;;;;;;13.32;8.38;;;;;;;;;;5094027;28;20056;-67
2021/07/18 10:53:34;;;;;;;14.88;8.70;;;;;;;;;;5075756;28;20028;-67
2021/07/18 10:56:01;;;;;;;14.75;8.32;;;;;;;;;;5075770;28;20066;-67
2021/07/18 10:58:40;;;;;;;11.63;7.57;;;;;;;;;;5093791;28;20028;-67
2021/07/18 11:01:06;;;;;;;14.20;8.45;;;;;;;;;;5075465;28;20413;-67
2021/07/18 11:03:35;;;;;;;12.65;8.43;;;;;;;;;;5075452;28;20059;-67
2021/07/18 11:06:20;;;;;;;15.07;7.97;;;;;;;;;;5093558;28;20020;-67
2021/07/18 11:09:05;;;;;;;16.25;8.65;;;;;;;;;;5075209;28;20032;-67
2021/07/18 11:11:57;;;;;;;15.95;9.18;;;;;;;;;;5093944;28;20099;-67
2021/07/18 11:14:23;;;;;;;;;;;;;;;;;;5072160;28;20044;-67
2021/07/18 11:16:50;;;;;;;14.18;8.00;;;;;;;;;;5093501;28;19908;-66
2021/07/18 11:19:35;;;;;;;13.93;8.93;;;;;;;;;;5093522;28;20099;-67
2021/07/18 11:22:02;;;;;;;13.52;8.50;;;;;;;;;;5093193;28;20031;-66
2021/07/18 11:24:47;;;;;;;13.05;7.90;;;;;;;;;;5093294;28;20582;-67
2021/07/18 11:27:31;;;;;;;13.82;8.75;;;;;;;;;;5074914;28;20408;-67
2021/07/18 11:29:58;;;;;;;12.07;8.05;;;;;;;;;;5093208;28;20188;-67
2021/07/18 11:32:26;;;;;;;15.45;8.50;;;;;;;;;;5093074;28;20225;-69
2021/07/18 11:34:53;;;;;;;13.98;8.98;;;;;;;;;;5093133;28;20021;-67
2021/07/18 11:37:20;;;;;;;12.88;8.23;;;;;;;;;;5093125;28;20027;-67
2021/07/18 11:39:46;;;;;;;10.60;8.10;;;;;;;;;;5074660;28;20030;-67
2021/07/18 11:42:14;;;;;;;11.15;7.68;;;;;;;;;;5074558;28;20071;-67
2021/07/18 11:44:42;;;;;;;13.10;8.20;;;;;;;;;;5092949;28;20095;-67
2021/07/18 11:47:09;;;;;;;10.80;7.55;;;;;;;;;;5092057;28;20085;-67
2021/07/18 11:49:37;;;;;;;12.27;8.43;;;;;;;;;;5092674;28;20024;-68
2021/07/18 11:52:04;;;;;;;15.55;8.65;;;;;;;;;;5092651;28;20477;-66
2021/07/18 11:54:30;;;;;;;16.10;7.85;;;;;;;;;;5092725;28;20025;-67
2021/07/18 11:56:56;;;;;;;12.02;7.70;;;;;;;;;;5074409;28;20400;-67
2021/07/18 11:59:24;;;;;;;14.18;7.88;;;;;;;;;;5092788;28;20027;-67
2021/07/18 12:01:51;;;;;;;12.38;7.95;;;;;;;;;;5092829;28;20046;-67
2021/07/18 12:04:24;;;;;;;15.00;6.80;;;;;;;;;;5092598;28;20024;-67
2021/07/18 12:06:52;;;;;;;12.27;7.72;;;;;;;;;;5092585;28;20040;-67
2021/07/18 12:09:20;;;;;;;14.45;7.60;;;;;;;;;;5092477;28;20058;-67
2021/07/18 12:11:48;;;;;;;13.35;8.15;;;;;;;;;;5074132;28;20483;-67
2021/07/18 12:14:15;;;;;;;15.23;7.85;;;;;;;;;;5092182;28;20040;-67
2021/07/18 12:16:44;;;;;;;13.43;7.93;;;;;;;;;;5092471;28;20024;-67
2021/07/18 12:19:10;;;;;;;14.70;8.40;;;;;;;;;;5074283;28;20059;-67
2021/07/18 12:21:38;;;;;;;14.73;8.43;;;;;;;;;;5092298;28;20027;-67
2021/07/18 12:24:10;;;;;;;14.55;8.25;;;;;;;;;;5074267;28;20103;-69
2021/07/18 12:26:36;;;;;;;14.80;9.25;;;;;;;;;;5092349;28;20024;-67
2021/07/18 12:29:03;;;;;;;12.80;8.02;;;;;;;;;;5092150;28;20035;-67
2021/07/18 12:31:29;;;;;;;13.77;9.10;;;;;;;;;;5092116;28;20016;-66
2021/07/18 12:33:55;;;;;;;15.73;9.13;;;;;;;;;;5091975;28;20026;-66
2021/07/18 12:36:21;;;;;;;15.75;9.32;;;;;;;;;;5092116;28;20434;-67
2021/07/18 12:38:47;;;;;;;16.23;9.35;;;;;;;;;;5091912;28;20012;-67
2021/07/18 12:41:13;;;;;;;14.70;9.40;;;;;;;;;;5073788;28;20032;-67
2021/07/18 12:43:40;;;;;;;15.38;9.48;;;;;;;;;;5092004;28;20016;-67
2021/07/18 12:46:06;;;;;;;17.90;10.10;;;;;;;;;;5092090;28;20096;-67
2021/07/18 12:48:32;;;;;;;18.75;9.25;;;;;;;;;;5092113;28;20043;-67
2021/07/18 12:50:58;;;;;;;15.48;10.38;;;;;;;;;;5091888;28;20377;-67
2021/07/18 12:53:25;;;;;;;20.45;10.57;;;;;;;;;;5073887;28;20552;-67
2021/07/18 12:55:57;;;;;;;19.00;10.55;;;;;;;;;;5092081;28;20038;-66
2021/07/18 12:58:23;;;;;;;;;;;;;;;;;;5076500;28;20024;-67
2021/07/18 13:01:10;;;;;;;22.25;10.35;;;;;;;;;;5095854;28;19904;-69
2021/07/18 13:03:37;;;;;;;21.77;10.65;;;;;;;;;;5095825;28;20468;-67
2021/07/18 13:06:07;;;;;;;16.23;9.75;;;;;;;;;;5077676;28;20031;-67
2021/07/18 13:08:44;;;;;;;14.80;8.80;;;;;;;;;;5095891;28;20032;-67
2021/07/18 13:11:29;;;;;;;16.73;10.10;;;;;;;;;;5096006;28;20365;-69
2021/07/18 13:13:56;;;;;;;17.13;10.40;;;;;;;;;;5077562;28;20066;-67
2021/07/18 13:16:34;;;;;;;16.77;10.13;;;;;;;;;;5095833;28;20062;-67
2021/07/18 13:19:11;;;;;;;14.52;9.38;;;;;;;;;;5095788;28;20028;-67
2021/07/18 13:21:38;;;;;;;13.68;8.77;;;;;;;;;;5095768;28;20020;-67
2021/07/18 13:24:04;;;;;;;15.55;8.93;;;;;;;;;;5095662;28;20024;-67
2021/07/18 13:26:37;;;;;;;17.20;9.60;;;;;;;;;;5095440;28;20102;-67
2021/07/18 13:29:12;;;;;;;17.13;9.23;;;;;;;;;;5095709;28;20032;-67
2021/07/18 13:31:38;;;;;;;19.33;10.75;;;;;;;;;;5095596;28;20395;-67
2021/07/18 13:34:04;;;;;;;19.05;10.57;;;;;;;;;;5077392;28;20111;-66
2021/07/18 13:36:30;;;;;;;21.33;10.40;;;;;;;;;;5095392;28;20380;-67
2021/07/18 13:39:06;;;;;;;16.85;10.77;;;;;;;;;;5095213;28;20389;-66
2021/07/18 13:41:32;;;;;;;17.77;10.45;;;;;;;;;;5095406;28;20020;-66
2021/07/18 13:43:58;;;;;;;13.77;9.57;;;;;;;;;;5077044;28;20024;-67
2021/07/18 13:46:24;;;;;;;18.80;10.25;;;;;;;;;;5094995;28;20024;-70
2021/07/18 13:48:50;;;;;;;14.40;9.90;;;;;;;;;;5095085;28;20036;-67
2021/07/18 13:51:17;;;;;;;18.23;9.50;;;;;;;;;;5094983;28;20112;-67
2021/07/18 13:53:43;;;;;;;22.13;11.63;;;;;;;;;;5095075;28;20020;-67
2021/07/18 13:56:09;;;;;;;15.18;11.13;;;;;;;;;;5094971;28;20020;-67
2021/07/18 13:58:35;;;;;;;24.60;10.90;;;;;;;;;;5094875;28;20039;-67
2021/07/18 14:01:01;;;;;;;20.38;11.20;;;;;;;;;;5094882;28;20016;-67
2021/07/18 14:03:27;;;;;;;18.38;10.93;;;;;;;;;;5094879;28;20020;-67
2021/07/18 14:05:54;;;;;;;17.13;10.70;;;;;;;;;;5095018;28;20016;-67
2021/07/18 14:08:20;;;;;;;15.82;11.65;;;;;;;;;;5094768;28;20044;-67
2021/07/18 14:10:46;;;;;;;22.73;11.75;;;;;;;;;;5094229;28;20047;-67
2021/07/18 14:13:12;;;;;;;16.13;10.57;;;;;;;;;;5094724;28;20048;-67
2021/07/18 14:15:38;;;;;;;20.17;12.18;;;;;;;;;;5094862;28;20408;-68
2021/07/18 14:18:07;;;;;;;18.52;11.10;;;;;;;;;;5094626;28;20024;-67
2021/07/18 14:20:33;;;;;;;17.58;12.07;;;;;;;;;;5094461;28;20488;-67
2021/07/18 14:22:59;;;;;;;18.10;11.35;;;;;;;;;;5094737;28;20032;-67
2021/07/18 14:25:26;;;;;;;17.77;11.98;;;;;;;;;;5094384;28;20028;-69